Terminal Aerodrome Forecast
Issued by NWS Austin/San Antonio, TX

Current Version | Previous Version | Text Only | Print | Product List | Glossary Off
Versions: 1 2 3 4 5 6 7 8 9 10 11 12 13 14 15 16 17 18 19 20 21 22 23 24 25 26 27 28 29 30 31 32 33

000
FTUS44 KEWX 241023 AAB
TAFSAT
TAF AMD
KSAT 241023Z 2410/2512 VRB04KT P6SM VCSH FEW025 BKN050 OVC150
     FM241300 18013KT P6SM BKN015
     FM241700 17013KT P6SM SCT040
     FM250400 15010KT 6SM BR OVC015
     FM250700 15010KT 4SM BR OVC007=

USA.gov is the U.S. government's official web portal to all federal, state and local government web resources and services.